createdAt,value
2023-05-14T00:00:13.706Z,3.916
2023-05-14T00:01:13.739Z,3.861
2023-05-14T00:02:13.856Z,3.86
2023-05-14T00:03:13.978Z,3.842
2023-05-14T00:04:13.864Z,3.842
2023-05-14T00:05:13.840Z,3.86
2023-05-14T00:06:13.873Z,3.894
2023-05-14T00:07:13.921Z,3.928
2023-05-14T00:08:13.948Z,3.962
2023-05-14T00:09:13.937Z,3.905
2023-05-14T00:10:13.971Z,3.87
2023-05-14T00:11:13.989Z,3.905
2023-05-14T00:12:14.010Z,3.905
2023-05-14T00:13:14.069Z,3.887
2023-05-14T00:14:14.060Z,3.805
2023-05-14T00:15:14.087Z,3.802
2023-05-14T00:16:14.130Z,3.771
2023-05-14T00:17:14.097Z,3.743
2023-05-14T00:18:14.130Z,3.76
2023-05-14T00:19:14.180Z,3.777
2023-05-14T00:20:14.146Z,3.741
2023-05-14T00:21:14.161Z,3.685
2023-05-14T00:22:14.169Z,3.685
2023-05-14T00:23:14.196Z,3.668
2023-05-14T00:24:14.235Z,3.632
2023-05-14T00:25:14.231Z,3.594
2023-05-14T00:26:14.268Z,3.647
2023-05-14T00:27:14.296Z,3.662
2023-05-14T00:28:14.322Z,3.644
2023-05-14T00:29:14.369Z,3.662
2023-05-14T00:30:14.381Z,3.644
2023-05-14T00:31:14.445Z,3.661
2023-05-14T00:32:14.423Z,3.679
2023-05-14T00:33:14.451Z,3.696
2023-05-14T00:34:14.496Z,3.676
2023-05-14T00:35:14.513Z,3.619
2023-05-14T00:36:14.536Z,3.638
2023-05-14T00:37:14.544Z,3.651
2023-05-14T00:38:14.576Z,3.649
2023-05-14T00:39:14.598Z,3.63
2023-05-14T00:40:14.624Z,3.647
2023-05-14T00:41:14.653Z,3.664
2023-05-14T00:42:14.675Z,3.647
2023-05-14T00:43:14.676Z,3.63
2023-05-14T00:44:14.697Z,3.578
2023-05-14T00:45:14.710Z,3.557
2023-05-14T00:46:14.790Z,3.515
2023-05-14T00:47:14.774Z,3.515
2023-05-14T00:48:14.779Z,3.551
2023-05-14T00:49:14.779Z,3.532
2023-05-14T00:50:14.782Z,3.584
2023-05-14T00:51:14.802Z,3.572
2023-05-14T00:52:14.818Z,3.567
2023-05-14T00:53:14.858Z,3.584
2023-05-14T00:54:14.880Z,3.556
2023-05-14T00:55:14.910Z,3.492
2023-05-14T00:56:14.934Z,3.509
2023-05-14T00:57:14.982Z,3.509
2023-05-14T00:58:14.995Z,3.542
2023-05-14T00:59:15.029Z,3.506
2023-05-14T01:00:15.055Z,3.506
2023-05-14T01:01:15.131Z,3.485
2023-05-14T01:02:15.100Z,3.469
2023-05-14T01:03:15.209Z,3.502
2023-05-14T01:04:15.139Z,3.519
2023-05-14T01:05:15.176Z,3.502
2023-05-14T01:06:15.184Z,3.519
2023-05-14T01:07:15.224Z,3.502
2023-05-14T01:08:15.230Z,3.469
2023-05-14T01:09:15.247Z,3.435
2023-05-14T01:10:15.280Z,3.419
2023-05-14T01:11:15.304Z,3.419
2023-05-14T01:12:15.337Z,3.419
2023-05-14T01:13:15.344Z,3.402
2023-05-14T01:14:15.367Z,3.338
2023-05-14T01:15:15.459Z,3.321
2023-05-14T01:16:15.435Z,3.321
2023-05-14T01:17:15.442Z,3.304
2023-05-14T01:18:15.439Z,3.229
2023-05-14T01:19:15.502Z,3.229
2023-05-14T01:20:15.443Z,3.246
2023-05-14T01:21:15.462Z,3.27
2023-05-14T01:22:15.493Z,3.287
2023-05-14T01:23:15.523Z,3.266
2023-05-14T01:24:15.575Z,3.228
2023-05-14T01:25:15.565Z,3.259
2023-05-14T01:26:15.623Z,3.33
2023-05-14T01:27:15.621Z,3.313
2023-05-14T01:28:15.648Z,3.316
2023-05-14T01:29:15.673Z,3.316
2023-05-14T01:30:15.700Z,3.274
2023-05-14T01:31:15.738Z,3.29
2023-05-14T01:32:15.746Z,3.29
2023-05-14T01:33:15.770Z,3.29
2023-05-14T01:34:15.799Z,3.323
2023-05-14T01:35:15.813Z,3.356
2023-05-14T01:36:15.845Z,3.373
2023-05-14T01:37:15.838Z,3.373
2023-05-14T01:38:15.858Z,3.307
2023-05-14T01:39:15.902Z,3.307
2023-05-14T01:40:15.903Z,3.29
2023-05-14T01:41:15.940Z,3.21
2023-05-14T01:42:15.947Z,3.212
2023-05-14T01:43:15.976Z,3.184
2023-05-14T01:44:15.978Z,3.167
2023-05-14T01:45:15.983Z,3.167
2023-05-14T01:46:16.021Z,3.17
2023-05-14T01:47:16.022Z,3.134
2023-05-14T01:48:16.038Z,3.17
2023-05-14T01:49:16.075Z,3.066
2023-05-14T01:50:16.092Z,3.083
2023-05-14T01:51:16.108Z,3.061
2023-05-14T01:52:16.138Z,3.099
2023-05-14T01:53:16.172Z,3.071
2023-05-14T01:54:16.237Z,3.068
2023-05-14T01:55:16.213Z,3.087
2023-05-14T01:56:16.268Z,3.104
2023-05-14T01:57:16.276Z,3.12
2023-05-14T01:58:16.305Z,3.101
2023-05-14T01:59:16.331Z,3.118
2023-05-14T02:00:16.350Z,3.118
2023-05-14T02:01:16.445Z,3.101
2023-05-14T02:02:16.410Z,3.118
2023-05-14T02:03:16.411Z,3.118
2023-05-14T02:04:16.477Z,3.134
2023-05-14T02:05:16.467Z,3.123
2023-05-14T02:06:16.478Z,3.035
2023-05-14T02:07:16.510Z,3.051
2023-05-14T02:08:16.525Z,3.068
2023-05-14T02:09:16.554Z,3.084
2023-05-14T02:10:16.558Z,3.084
2023-05-14T02:11:16.584Z,3.065
2023-05-14T02:12:16.608Z,3.065
2023-05-14T02:13:16.619Z,3.049
2023-05-14T02:14:16.672Z,3.068
2023-05-14T02:15:16.660Z,3.051
2023-05-14T02:16:16.691Z,3.07
2023-05-14T02:17:16.671Z,3.068
2023-05-14T02:18:16.684Z,3.021
2023-05-14T02:19:16.761Z,3.037
2023-05-14T02:20:16.737Z,3.053
2023-05-14T02:21:16.746Z,3.072
2023-05-14T02:22:16.772Z,3.086
2023-05-14T02:23:16.800Z,3.121
2023-05-14T02:24:16.825Z,3.137
2023-05-14T02:25:16.897Z,3.154
2023-05-14T02:26:16.876Z,3.17
2023-05-14T02:27:16.913Z,3.221
2023-05-14T02:28:16.925Z,3.205
2023-05-14T02:29:16.975Z,3.221
2023-05-14T02:30:16.979Z,3.237
2023-05-14T02:31:17.034Z,3.254
2023-05-14T02:32:17.095Z,3.305
2023-05-14T02:33:17.160Z,3.324
2023-05-14T02:34:17.098Z,3.356
2023-05-14T02:35:17.138Z,3.391
2023-05-14T02:36:17.136Z,3.423
2023-05-14T02:37:17.180Z,3.439
2023-05-14T02:38:17.178Z,3.484
2023-05-14T02:39:17.199Z,3.5
2023-05-14T02:40:17.223Z,3.5
2023-05-14T02:41:17.260Z,3.538
2023-05-14T02:42:17.254Z,3.55
2023-05-14T02:43:17.287Z,3.502
2023-05-14T02:44:17.323Z,3.502
2023-05-14T02:45:17.320Z,3.518
2023-05-14T02:46:17.383Z,3.514
2023-05-14T02:47:17.342Z,3.466
2023-05-14T02:48:17.351Z,3.417
2023-05-14T02:49:17.393Z,3.352
2023-05-14T02:50:17.409Z,3.336
2023-05-14T02:51:17.405Z,3.336
2023-05-14T02:52:17.423Z,3.339
2023-05-14T02:53:17.462Z,3.322
2023-05-14T02:54:17.491Z,3.273
2023-05-14T02:55:17.528Z,3.24
2023-05-14T02:56:17.530Z,3.24
2023-05-14T02:57:17.551Z,3.33
2023-05-14T02:58:17.565Z,3.379
2023-05-14T02:59:17.608Z,3.428
2023-05-14T03:00:17.627Z,3.461
2023-05-14T03:01:17.756Z,3.509
2023-05-14T03:02:17.862Z,3.561
2023-05-14T03:03:17.733Z,3.544
2023-05-14T03:04:17.733Z,3.477
2023-05-14T03:05:17.747Z,3.442
2023-05-14T03:06:17.789Z,3.456
2023-05-14T03:07:17.813Z,3.44
2023-05-14T03:08:17.826Z,3.501
2023-05-14T03:09:17.845Z,3.485
2023-05-14T03:10:17.880Z,3.497
2023-05-14T03:11:17.902Z,3.448
2023-05-14T03:12:17.904Z,3.399
2023-05-14T03:13:17.952Z,3.349
2023-05-14T03:14:17.931Z,3.333
2023-05-14T03:15:17.947Z,3.333
2023-05-14T03:16:17.975Z,3.349
2023-05-14T03:17:17.969Z,3.366
2023-05-14T03:18:17.988Z,3.41
2023-05-14T03:19:17.994Z,3.455
2023-05-14T03:20:18.023Z,3.491
2023-05-14T03:21:18.046Z,3.474
2023-05-14T03:22:18.072Z,3.441
2023-05-14T03:23:18.092Z,3.425
2023-05-14T03:24:18.116Z,3.425
2023-05-14T03:25:18.145Z,3.458
2023-05-14T03:26:18.166Z,3.493
2023-05-14T03:27:18.185Z,3.509
2023-05-14T03:28:18.215Z,3.559
2023-05-14T03:29:18.251Z,3.526
2023-05-14T03:30:18.259Z,3.512
2023-05-14T03:31:18.360Z,3.564
2023-05-14T03:32:18.313Z,3.548
2023-05-14T03:33:18.333Z,3.543
2023-05-14T03:34:18.353Z,3.526
2023-05-14T03:35:18.373Z,3.576
2023-05-14T03:36:18.391Z,3.59
2023-05-14T03:37:18.406Z,3.573
2023-05-14T03:38:18.416Z,3.621
2023-05-14T03:39:18.433Z,3.604
2023-05-14T03:40:18.447Z,3.637
2023-05-14T03:41:18.465Z,3.691
2023-05-14T03:42:18.475Z,3.773
2023-05-14T03:43:18.494Z,3.846
2023-05-14T03:44:18.498Z,3.797
2023-05-14T03:45:18.568Z,3.748
2023-05-14T03:46:18.562Z,3.715
2023-05-14T03:47:18.590Z,3.666
2023-05-14T03:48:18.692Z,3.668
2023-05-14T03:49:18.652Z,3.767
2023-05-14T03:50:18.676Z,3.8
2023-05-14T03:51:18.692Z,3.868
2023-05-14T03:52:18.726Z,3.913
2023-05-14T03:53:18.750Z,3.88
2023-05-14T03:54:18.786Z,3.88
2023-05-14T03:55:18.806Z,3.91
2023-05-14T03:56:18.827Z,3.978
2023-05-14T03:57:18.851Z,3.976
2023-05-14T03:58:18.870Z,4.03
2023-05-14T03:59:18.914Z,4.119
2023-05-14T04:00:18.926Z,4.151
2023-05-14T04:01:18.933Z,4.205
2023-05-14T04:02:19.040Z,4.205
2023-05-14T04:03:19.090Z,4.192
2023-05-14T04:04:19.053Z,4.159
2023-05-14T04:05:19.033Z,4.143
2023-05-14T04:06:19.050Z,4.155
2023-05-14T04:07:19.051Z,4.148
2023-05-14T04:08:19.076Z,4.167
2023-05-14T04:09:19.101Z,4.196
2023-05-14T04:10:19.113Z,4.163
2023-05-14T04:11:19.106Z,4.166
2023-05-14T04:12:19.118Z,4.133
2023-05-14T04:13:19.140Z,4.135
2023-05-14T04:14:19.182Z,4.208
2023-05-14T04:15:19.196Z,4.192
2023-05-14T04:16:19.239Z,4.142
2023-05-14T04:17:19.240Z,4.112
2023-05-14T04:18:19.298Z,4.095
2023-05-14T04:19:19.347Z,4.128
2023-05-14T04:20:19.333Z,4.171
2023-05-14T04:21:19.353Z,4.187
2023-05-14T04:22:19.378Z,4.227
2023-05-14T04:23:19.402Z,4.246
2023-05-14T04:24:19.428Z,4.227
2023-05-14T04:25:19.457Z,4.239
2023-05-14T04:26:19.481Z,4.237
2023-05-14T04:27:19.511Z,4.357
2023-05-14T04:28:19.592Z,4.412
2023-05-14T04:29:19.555Z,4.445
2023-05-14T04:30:19.572Z,4.428
2023-05-14T04:31:19.641Z,4.428
2023-05-14T04:32:19.621Z,4.506
2023-05-14T04:33:19.671Z,4.525
2023-05-14T04:34:19.688Z,4.542
2023-05-14T04:35:20.170Z,4.509
2023-05-14T04:36:19.704Z,4.475
2023-05-14T04:37:19.735Z,4.511
2023-05-14T04:38:19.731Z,4.544
2023-05-14T04:39:19.778Z,4.591
2023-05-14T04:40:19.784Z,4.608
2023-05-14T04:41:19.798Z,4.641
2023-05-14T04:42:19.795Z,4.685
2023-05-14T04:43:19.808Z,4.702
2023-05-14T04:44:19.814Z,4.737
2023-05-14T04:45:19.869Z,4.768
2023-05-14T04:46:19.938Z,4.745
2023-05-14T04:47:19.944Z,4.789
2023-05-14T04:48:19.936Z,4.806
2023-05-14T04:49:19.966Z,4.855
2023-05-14T04:50:19.998Z,4.919
2023-05-14T04:51:20.031Z,5.029
2023-05-14T04:52:20.030Z,5.123
2023-05-14T04:53:20.051Z,5.144
2023-05-14T04:54:20.118Z,5.163
2023-05-14T04:55:20.094Z,5.143
2023-05-14T04:56:20.113Z,5.148
2023-05-14T04:57:20.141Z,5.169
2023-05-14T04:58:20.161Z,5.155
2023-05-14T04:59:20.181Z,5.196
2023-05-14T05:00:20.196Z,5.248
2023-05-14T05:01:20.296Z,5.234
2023-05-14T05:02:20.262Z,5.252
2023-05-14T05:03:20.348Z,5.252
2023-05-14T05:04:20.365Z,5.285
2023-05-14T05:05:20.330Z,5.363
2023-05-14T05:06:20.364Z,5.347
2023-05-14T05:07:20.365Z,5.422
2023-05-14T05:08:20.381Z,5.385
2023-05-14T05:09:20.394Z,5.409
2023-05-14T05:10:20.429Z,5.461
2023-05-14T05:11:20.433Z,5.505
2023-05-14T05:12:20.455Z,5.522
2023-05-14T05:13:20.451Z,5.661
2023-05-14T05:14:20.501Z,5.741
2023-05-14T05:15:20.482Z,5.769
2023-05-14T05:16:20.568Z,5.821
2023-05-14T05:17:20.562Z,5.779
2023-05-14T05:18:20.572Z,5.765
2023-05-14T05:19:26.542Z,5.784
2023-05-14T05:20:20.686Z,5.86
2023-05-14T05:21:20.647Z,5.881
2023-05-14T05:22:20.690Z,5.955
2023-05-14T05:23:20.712Z,5.99
2023-05-14T05:24:20.737Z,5.976
2023-05-14T05:25:20.792Z,6.096
2023-05-14T05:26:20.796Z,6.153
2023-05-14T05:27:20.789Z,6.226
2023-05-14T05:28:20.818Z,6.212
2023-05-14T05:29:20.844Z,6.2
2023-05-14T05:30:20.875Z,6.257
2023-05-14T05:31:20.949Z,6.309
2023-05-14T05:32:20.950Z,6.333
2023-05-14T05:33:20.929Z,6.401
2023-05-14T05:34:20.961Z,6.545
2023-05-14T05:35:20.983Z,6.597
2023-05-14T05:36:20.995Z,6.534
2023-05-14T05:37:21.006Z,6.279
2023-05-14T05:38:21.037Z,6.004
2023-05-14T05:39:21.061Z,5.818
2023-05-14T05:40:21.119Z,5.787
2023-05-14T05:41:21.078Z,5.435
2023-05-14T05:42:21.092Z,5.517
2023-05-14T05:43:21.103Z,5.339
2023-05-14T05:44:21.116Z,4.99
2023-05-14T05:45:21.159Z,4.877
2023-05-14T05:46:21.199Z,4.592
2023-05-14T05:47:21.279Z,4.781
2023-05-14T05:48:21.217Z,4.693
2023-05-14T05:49:21.241Z,4.758
2023-05-14T05:50:21.488Z,4.93
2023-05-14T05:51:21.309Z,4.976
2023-05-14T05:52:21.314Z,4.604
2023-05-14T05:53:21.337Z,4.343
2023-05-14T05:54:21.353Z,4.74
2023-05-14T05:55:21.377Z,4.724
2023-05-14T05:56:21.397Z,4.482
2023-05-14T05:57:21.432Z,4.351
2023-05-14T05:58:21.449Z,3.891
2023-05-14T05:59:21.461Z,3.429
2023-05-14T06:00:21.683Z,3.321
2023-05-14T06:01:21.496Z,3.134
2023-05-14T06:02:21.573Z,2.835
2023-05-14T06:03:21.599Z,3.004
2023-05-14T06:04:21.559Z,3.118
2023-05-14T06:05:21.659Z,3.123
2023-05-14T06:06:21.596Z,3.05
2023-05-14T06:07:21.597Z,2.472
2023-05-14T06:08:21.606Z,1.759
2023-05-14T06:09:21.609Z,1.809
2023-05-14T06:10:21.854Z,1.87
2023-05-14T06:11:21.707Z,1.403
2023-05-14T06:12:21.690Z,1.908
2023-05-14T06:13:21.720Z,1.681
2023-05-14T06:14:21.754Z,1.806
2023-05-14T06:15:21.797Z,1.383
2023-05-14T06:16:21.822Z,1.022
2023-05-14T06:17:21.855Z,0.5262
2023-05-14T06:18:21.834Z,0.5409
2023-05-14T06:19:21.862Z,0.6511
2023-05-14T06:20:22.120Z,1.054
2023-05-14T06:21:21.888Z,-0.0517
2023-05-14T06:22:21.922Z,-0.07384
2023-05-14T06:23:21.932Z,0.08578
2023-05-14T06:24:21.961Z,0.1635
2023-05-14T06:25:21.978Z,0.3955
2023-05-14T06:26:21.992Z,-0.507
2023-05-14T06:27:22.037Z,-0.2076
2023-05-14T06:28:22.034Z,-0.02309
2023-05-14T06:29:22.052Z,-0.3877
2023-05-14T06:30:22.259Z,-0.5886
2023-05-14T06:31:22.149Z,-0.9053
2023-05-14T06:32:22.216Z,-1.033
2023-05-14T06:33:22.180Z,-0.8036
2023-05-14T06:34:22.128Z,-0.8599
2023-05-14T06:35:22.145Z,-0.4734
2023-05-14T06:36:22.212Z,0.1843
2023-05-14T06:37:22.253Z,0.4836
2023-05-14T06:38:22.220Z,0.3954
2023-05-14T06:39:22.223Z,-0.5652
2023-05-14T06:40:22.593Z,0.105
2023-05-14T06:41:22.274Z,0.2404
2023-05-14T06:42:22.285Z,0.6821
2023-05-14T06:43:22.310Z,0.4099
2023-05-14T06:44:22.334Z,0.259
2023-05-14T06:45:22.364Z,0.7256
2023-05-14T06:46:22.390Z,0.4212
2023-05-14T06:47:22.506Z,1.033
2023-05-14T06:48:22.527Z,0.4391
2023-05-14T06:49:22.463Z,0.3359
2023-05-14T06:50:22.740Z,0.6394
2023-05-14T06:51:22.485Z,0.5361
2023-05-14T06:52:22.515Z,0.6385
2023-05-14T06:53:22.531Z,0.6219
2023-05-14T06:54:22.564Z,0.7993
2023-05-14T06:55:22.552Z,1.122
2023-05-14T06:56:22.584Z,0.6799
2023-05-14T06:57:22.593Z,1.334
2023-05-14T06:58:22.610Z,1.706
2023-05-14T06:59:22.623Z,1.37
2023-05-14T07:00:22.880Z,1.132
2023-05-14T07:01:22.698Z,1.279
2023-05-14T07:02:22.688Z,1.539
2023-05-14T07:03:22.685Z,1.64
2023-05-14T07:04:22.737Z,1.829
2023-05-14T07:05:22.736Z,1.614
2023-05-14T07:06:22.753Z,1.82
2023-05-14T07:07:22.782Z,1.654
2023-05-14T07:08:22.821Z,1.388
2023-05-14T07:09:22.839Z,1.345
2023-05-14T07:10:23.165Z,1.901
2023-05-14T07:11:22.908Z,2.319
2023-05-14T07:12:22.927Z,2.493
2023-05-14T07:13:22.944Z,2.293
2023-05-14T07:14:22.974Z,1.906
2023-05-14T07:15:22.988Z,2.176
2023-05-14T07:16:23.025Z,2.252
2023-05-14T07:17:23.164Z,2.502
2023-05-14T07:18:23.065Z,2.2
2023-05-14T07:19:23.089Z,2.149
2023-05-14T07:20:23.374Z,1.945
2023-05-14T07:21:23.142Z,1.867
2023-05-14T07:22:23.231Z,1.901
2023-05-14T07:23:23.199Z,1.94
2023-05-14T07:24:23.215Z,2.261
2023-05-14T07:25:23.238Z,1.914
2023-05-14T07:26:23.263Z,2.255
2023-05-14T07:27:23.294Z,2.181
2023-05-14T07:28:23.317Z,2.299
2023-05-14T07:29:23.330Z,2.417
2023-05-14T07:30:23.580Z,2.517
2023-05-14T07:31:23.511Z,2.163
2023-05-14T07:32:23.392Z,2.047
2023-05-14T07:33:23.405Z,2.149
2023-05-14T07:34:23.424Z,2.426
2023-05-14T07:35:23.442Z,2.803
2023-05-14T07:36:23.468Z,2.834
2023-05-14T07:37:24.248Z,2.662
2023-05-14T07:38:23.478Z,2.458
2023-05-14T07:39:23.514Z,2.231
2023-05-14T07:40:23.681Z,2.379
2023-05-14T07:41:23.552Z,2.555
2023-05-14T07:42:34.379Z,2.526
2023-05-14T07:43:23.647Z,2.584
2023-05-14T07:44:23.649Z,2.546
2023-05-14T07:45:23.683Z,2.311
2023-05-14T07:46:23.695Z,2.548
2023-05-14T07:47:23.801Z,2.532
2023-05-14T07:48:23.840Z,2.883
2023-05-14T07:49:23.786Z,2.634
2023-05-14T07:50:24.019Z,2.432
2023-05-14T07:51:23.836Z,2.284
2023-05-14T07:52:23.862Z,2.444
2023-05-14T07:53:23.882Z,2.414
2023-05-14T07:54:23.918Z,2.561
2023-05-14T07:55:23.951Z,2.935
2023-05-14T07:56:23.957Z,2.907
2023-05-14T07:57:23.991Z,2.608
2023-05-14T07:58:24.031Z,2.546
2023-05-14T07:59:24.032Z,2.98
2023-05-14T08:00:24.328Z,2.834
2023-05-14T08:01:24.067Z,2.66
2023-05-14T08:02:24.172Z,2.931
2023-05-14T08:03:24.216Z,2.885
2023-05-14T08:04:24.166Z,2.881
2023-05-14T08:05:24.148Z,2.824
2023-05-14T08:06:24.167Z,2.696
2023-05-14T08:07:24.184Z,3.095
2023-05-14T08:08:24.195Z,3.262
2023-05-14T08:09:24.213Z,3.198
2023-05-14T08:10:24.533Z,3.083
2023-05-14T08:11:24.281Z,3.203
2023-05-14T08:12:24.262Z,3.056
2023-05-14T08:13:24.273Z,2.633
2023-05-14T08:14:24.301Z,2.416
2023-05-14T08:15:27.090Z,2.584
2023-05-14T08:16:24.377Z,2.387
2023-05-14T08:17:24.411Z,2.328
2023-05-14T08:18:24.411Z,2.401
2023-05-14T08:19:24.449Z,2.579
2023-05-14T08:20:24.741Z,2.375
2023-05-14T08:21:24.474Z,2.809
2023-05-14T08:22:24.501Z,2.673
2023-05-14T08:23:24.527Z,2.59
2023-05-14T08:24:24.555Z,2.769
2023-05-14T08:25:24.579Z,3.024
2023-05-14T08:26:24.601Z,3.08
2023-05-14T08:27:24.632Z,2.787
2023-05-14T08:28:24.638Z,2.513
2023-05-14T08:29:24.653Z,2.316
2023-05-14T08:30:24.921Z,2.31
2023-05-14T08:31:24.747Z,2.17
2023-05-14T08:32:24.711Z,2.102
2023-05-14T08:33:24.743Z,2.44
2023-05-14T08:34:24.767Z,2.181
2023-05-14T08:35:24.770Z,2.487
2023-05-14T08:36:24.773Z,2.649
2023-05-14T08:37:24.784Z,2.625
2023-05-14T08:38:24.789Z,2.6
2023-05-14T08:39:24.825Z,2.38
2023-05-14T08:40:25.078Z,2.636
2023-05-14T08:41:24.868Z,3.008
2023-05-14T08:42:24.903Z,2.502
2023-05-14T08:43:24.929Z,2.416
2023-05-14T08:44:24.969Z,2.101
2023-05-14T08:45:24.989Z,2.092
2023-05-14T08:46:25.032Z,2.493
2023-05-14T08:47:25.085Z,3.124
2023-05-14T08:48:25.134Z,3.294
2023-05-14T08:49:25.103Z,3.33
2023-05-14T08:50:25.492Z,2.7
2023-05-14T08:51:25.137Z,2.239
2023-05-14T08:52:25.160Z,2.488
2023-05-14T08:53:25.185Z,2.688
2023-05-14T08:54:25.211Z,2.827
2023-05-14T08:55:25.226Z,2.472
2023-05-14T08:56:25.240Z,2.532
2023-05-14T08:57:25.269Z,2.534
2023-05-14T08:58:25.302Z,2.647
2023-05-14T08:59:25.334Z,2.779
2023-05-14T09:00:25.802Z,3.096
2023-05-14T09:01:25.399Z,2.902
2023-05-14T09:02:25.475Z,2.328
2023-05-14T09:03:25.419Z,2.168
2023-05-14T09:04:25.448Z,2.464
2023-05-14T09:05:25.426Z,2.411
2023-05-14T09:06:25.442Z,2.303
2023-05-14T09:07:25.452Z,2.602
2023-05-14T09:08:25.460Z,2.638
2023-05-14T09:09:25.475Z,3.459
2023-05-14T09:10:25.797Z,2.883
2023-05-14T09:11:25.548Z,2.962
2023-05-14T09:12:25.558Z,3.313
2023-05-14T09:13:28.067Z,3.033
2023-05-14T09:14:25.600Z,2.693
2023-05-14T09:15:25.622Z,2.801
2023-05-14T09:16:25.694Z,3.33
2023-05-14T09:17:25.705Z,3.691
2023-05-14T09:18:25.733Z,4.233
2023-05-14T09:19:25.719Z,4.481
2023-05-14T09:20:26.213Z,3.502
2023-05-14T09:21:25.771Z,3.076
2023-05-14T09:22:25.794Z,2.859
2023-05-14T09:23:25.810Z,3.192
2023-05-14T09:24:25.843Z,2.831
2023-05-14T09:25:25.865Z,3.19
2023-05-14T09:26:25.885Z,3.216
2023-05-14T09:27:25.930Z,3.43
2023-05-14T09:28:25.946Z,2.409
2023-05-14T09:29:25.976Z,2.397
2023-05-14T09:30:26.168Z,3.069
2023-05-14T09:31:26.029Z,2.776
2023-05-14T09:32:26.023Z,2.498
2023-05-14T09:33:26.043Z,2.722
2023-05-14T09:34:26.076Z,2.938
2023-05-14T09:35:26.086Z,3.361
2023-05-14T09:36:26.094Z,3.96
2023-05-14T09:37:26.121Z,3.75
2023-05-14T09:38:26.115Z,3.178
2023-05-14T09:39:26.127Z,3.732
2023-05-14T09:40:26.316Z,2.706
2023-05-14T09:41:26.178Z,2.798
2023-05-14T09:42:26.203Z,2.505
2023-05-14T09:43:26.231Z,2.339
2023-05-14T09:44:26.271Z,2.735
2023-05-14T09:45:26.289Z,2.648
2023-05-14T09:46:26.307Z,2.441
2023-05-14T09:47:26.447Z,2.245
2023-05-14T09:48:26.420Z,2.475
2023-05-14T09:49:26.393Z,3.534
2023-05-14T09:50:26.699Z,3.613
2023-05-14T09:51:26.425Z,4.097
2023-05-14T09:52:26.448Z,4.322
2023-05-14T09:53:26.479Z,4.442
2023-05-14T09:54:26.494Z,3.516
2023-05-14T09:55:26.516Z,4.103
2023-05-14T09:56:26.535Z,3.862
2023-05-14T09:57:26.556Z,4.162
2023-05-14T09:58:26.592Z,3.886
2023-05-14T09:59:26.595Z,3.76
2023-05-14T10:00:26.747Z,3.505
2023-05-14T10:01:26.671Z,3.572
2023-05-14T10:02:26.690Z,3.337
2023-05-14T10:03:26.674Z,3.396
2023-05-14T10:04:26.728Z,3.578
2023-05-14T10:05:26.711Z,3.901
2023-05-14T10:06:26.708Z,3.794
2023-05-14T10:07:26.721Z,4.138
2023-05-14T10:08:26.751Z,3.959
2023-05-14T10:09:26.770Z,3.816
2023-05-14T10:10:27.351Z,4.082
2023-05-14T10:11:26.836Z,4.099
2023-05-14T10:12:26.866Z,3.576
2023-05-14T10:13:26.886Z,3.428
2023-05-14T10:14:46.289Z,3.944
2023-05-14T10:15:46.298Z,3.508
2023-05-14T10:16:46.327Z,4.469
2023-05-14T10:17:46.389Z,4.818
2023-05-14T10:18:46.403Z,5.065
2023-05-14T10:19:46.319Z,5.065
2023-05-14T10:20:46.334Z,5.552
2023-05-14T10:21:16.127Z,4.53
2023-05-14T10:22:16.135Z,5.329
2023-05-14T10:23:16.163Z,4.037
2023-05-14T10:24:16.187Z,4.283
2023-05-14T10:25:16.173Z,4.775
2023-05-14T10:26:16.192Z,4.204
2023-05-14T10:27:16.177Z,3.894
2023-05-14T10:28:16.187Z,3.807
2023-05-14T10:29:16.200Z,3.701
2023-05-14T10:30:16.222Z,3.481
2023-05-14T10:31:16.253Z,3.605
2023-05-14T10:32:16.225Z,3.718
2023-05-14T10:33:16.257Z,3.632
2023-05-14T10:34:16.253Z,3.598
2023-05-14T10:35:16.279Z,3.596
2023-05-14T10:36:16.295Z,3.563
2023-05-14T10:37:16.307Z,3.691
2023-05-14T10:38:16.318Z,3.66
2023-05-14T10:39:16.336Z,3.607
2023-05-14T10:40:16.351Z,3.873
2023-05-14T10:41:16.367Z,3.54
2023-05-14T10:42:16.401Z,3.47
2023-05-14T10:43:16.408Z,3.41
2023-05-14T10:44:16.437Z,3.43
2023-05-14T10:45:16.458Z,3.623
2023-05-14T10:46:16.471Z,3.667
2023-05-14T10:47:16.486Z,3.572
2023-05-14T10:48:16.533Z,3.844
2023-05-14T10:49:20.680Z,3.588
2023-05-14T10:50:16.504Z,3.623
2023-05-14T10:51:16.526Z,3.261
2023-05-14T10:52:16.517Z,3.442
2023-05-14T10:53:16.534Z,3.373
2023-05-14T10:54:16.542Z,3.509
2023-05-14T10:55:16.551Z,3.592
2023-05-14T10:56:16.559Z,3.557
2023-05-14T10:57:16.564Z,3.453
2023-05-14T10:58:16.569Z,3.478
2023-05-14T10:59:16.595Z,3.66
2023-05-14T11:00:16.606Z,3.66
2023-05-14T11:01:16.638Z,3.464
2023-05-14T11:02:16.719Z,3.471
2023-05-14T11:03:16.693Z,3.668
2023-05-14T11:04:16.799Z,3.718
2023-05-14T11:05:16.722Z,3.773
2023-05-14T11:06:16.752Z,3.8
2023-05-14T11:07:16.771Z,4.162
2023-05-14T11:08:16.792Z,3.858
2023-05-14T11:09:16.810Z,3.599
2023-05-14T11:10:16.856Z,3.247
2023-05-14T11:11:16.859Z,3.247
2023-05-14T11:12:16.892Z,3.427
2023-05-14T11:13:16.911Z,3.693
2023-05-14T11:14:16.909Z,3.699
2023-05-14T11:15:16.939Z,3.699
2023-05-14T11:17:17.079Z,3.73
2023-05-14T11:18:17.061Z,3.92
2023-05-14T11:19:17.062Z,3.92
2023-05-14T11:20:17.013Z,3.982
2023-05-14T11:21:17.046Z,3.859
2023-05-14T11:22:17.059Z,3.952
2023-05-14T11:23:17.065Z,4.213
2023-05-14T11:24:17.073Z,3.957
2023-05-14T11:25:17.121Z,3.926
2023-05-14T11:26:18.324Z,3.975
2023-05-14T11:27:17.128Z,3.752
2023-05-14T11:28:17.173Z,3.507
2023-05-14T11:29:17.160Z,3.379
2023-05-14T11:30:17.275Z,3.46
2023-05-14T11:31:17.240Z,3.841
2023-05-14T11:32:17.209Z,4.239
2023-05-14T11:33:17.327Z,3.961
2023-05-14T11:34:17.241Z,3.487
2023-05-14T11:35:17.257Z,3.678
2023-05-14T11:36:17.258Z,3.31
2023-05-14T11:37:17.276Z,3.375
2023-05-14T11:38:17.291Z,3.387
2023-05-14T11:39:17.285Z,3.284
2023-05-14T11:40:17.397Z,3.733
2023-05-14T11:41:17.305Z,3.701
2023-05-14T11:42:17.339Z,3.701
2023-05-14T11:43:17.335Z,3.652
2023-05-14T11:44:17.350Z,3.413
2023-05-14T11:45:17.370Z,3.495
2023-05-14T11:46:17.454Z,3.42
2023-05-14T11:47:17.432Z,3.548
2023-05-14T11:48:17.458Z,3.548
2023-05-14T11:49:17.493Z,3.437
2023-05-14T11:50:17.523Z,3.147
2023-05-14T11:51:17.560Z,3.156
2023-05-14T11:52:17.571Z,3.315
2023-05-14T11:53:17.585Z,3.089
2023-05-14T11:54:17.611Z,3.002
2023-05-14T11:55:17.654Z,3.469
2023-05-14T11:56:17.661Z,3.213
2023-05-14T11:57:17.680Z,3.149
2023-05-14T11:58:17.718Z,3.324
2023-05-14T11:59:17.731Z,3.515
2023-05-14T12:00:17.757Z,3.388
2023-05-14T12:01:17.846Z,3.55
2023-05-14T12:02:17.950Z,3.391
2023-05-14T12:03:17.906Z,3.391
2023-05-14T12:04:17.865Z,3.324
2023-05-14T12:05:17.833Z,3.448
2023-05-14T12:06:17.850Z,3.443
2023-05-14T12:07:17.859Z,3.252
2023-05-14T12:08:17.868Z,3.284
2023-05-14T12:09:17.878Z,3.569
2023-05-14T12:10:17.897Z,3.774
2023-05-14T12:11:17.925Z,3.836
2023-05-14T12:12:17.964Z,4.02
2023-05-14T12:13:17.985Z,3.791
2023-05-14T12:14:18.015Z,4.038
2023-05-14T12:15:18.029Z,3.607
2023-05-14T12:16:18.105Z,3.42
2023-05-14T12:17:18.169Z,3.388
2023-05-14T12:18:24.460Z,3.628
2023-05-14T12:19:18.190Z,3.691
2023-05-14T12:20:18.177Z,3.91
2023-05-14T12:21:18.190Z,3.693
2023-05-14T12:22:18.216Z,3.504
2023-05-14T12:23:18.226Z,3.472
2023-05-14T12:24:18.267Z,3.44
2023-05-14T12:25:18.278Z,3.88
2023-05-14T12:26:18.299Z,3.599
2023-05-14T12:27:18.321Z,3.959
2023-05-14T12:28:18.336Z,4.051
2023-05-14T12:29:18.360Z,3.959
2023-05-14T12:30:21.815Z,4.047
2023-05-14T12:31:18.413Z,3.756
2023-05-14T12:32:18.442Z,3.474
2023-05-14T12:33:18.438Z,3.316
2023-05-14T12:34:18.481Z,3.411
2023-05-14T12:35:18.480Z,3.694
2023-05-14T12:36:21.966Z,3.365
2023-05-14T12:37:18.499Z,3.428
2023-05-14T12:38:18.511Z,3.492
2023-05-14T12:39:18.535Z,3.555
2023-05-14T12:40:18.557Z,3.166
2023-05-14T12:41:18.706Z,3.012
2023-05-14T12:42:18.605Z,3.373
2023-05-14T12:43:18.632Z,3.292
2023-05-14T12:44:18.671Z,3.309
2023-05-14T12:45:18.698Z,3.18
2023-05-14T12:46:18.720Z,3.4
2023-05-14T12:47:18.756Z,3.432
2023-05-14T12:48:18.771Z,3.449
2023-05-14T12:49:18.796Z,3.346
2023-05-14T12:50:18.824Z,3.525
2023-05-14T12:51:18.844Z,3.413
2023-05-14T12:52:26.012Z,2.989
2023-05-14T12:53:18.890Z,3.041
2023-05-14T12:54:18.925Z,2.961
2023-05-14T12:55:18.955Z,3.145